Time;durP1;ratioP1;P1;durP2;ratioP2;P2;SDS_P1;SDS_P2;PMS_P1;PMS_P2;Temp;Humidity;BMP_temperature;BMP_pressure;BME280_temperature;BME280_humidity;BME280_pressure;Samples;Min_cycle;Max_cycle;Signal;HPM_P1;HPM_P2
2022/05/23 00:00:03;;;;;;;;;4.25;4.25;;;26.98;97153.02;;;;117899;1187;25127;-58
2022/05/23 00:02:53;;;;;;;;;5.25;5.25;;;27.03;97148.69;;;;117874;1188;24877;-58
2022/05/23 00:05:22;;;;;;;;;5.50;4.00;;;27.04;97143.95;;;;117887;1188;25734;-56
2022/05/23 00:07:51;;;;;;;;;5.67;5.33;;;27.02;97144.86;;;;117876;1188;25384;-58
2022/05/23 00:10:25;;;;;;;;;7.25;5.00;;;26.99;97147.37;;;;117460;1188;24917;-57
2022/05/23 00:12:56;;;;;;;;;10.50;7.50;;;26.99;97146.88;;;;117892;1186;25336;-57
2022/05/23 00:15:24;;;;;;;;;5.00;5.00;;;26.98;97149.02;;;;117401;1190;24737;-58
2022/05/23 00:17:55;;;;;;;;;5.00;4.00;;;26.99;97147.30;;;;117860;1186;24885;-58
2022/05/23 00:20:26;;;;;;;;;7.00;5.25;;;26.98;97147.14;;;;117394;1190;25317;-59
2022/05/23 00:22:54;;;;;;;;;7.67;7.67;;;26.97;97144.73;;;;117902;1186;25609;-58
2022/05/23 00:25:25;;;;;;;;;5.00;5.00;;;26.97;97143.10;;;;117884;1186;25542;-58
2022/05/23 00:27:55;;;;;;;;;5.00;5.00;;;26.97;97140.74;;;;117881;1188;25325;-58
2022/05/23 00:30:26;;;;;;;;;5.50;4.75;;;26.97;97142.02;;;;117383;1189;25569;-57
2022/05/23 00:35:52;;;;;;;;;5.00;5.00;;;26.96;97136.73;;;;117847;1186;25697;-57
2022/05/23 00:38:22;;;;;;;;;6.33;5.00;;;26.95;97137.67;;;;117871;1188;25970;-57
2022/05/23 00:44:12;;;;;;;;;10.50;6.50;;;27.05;97138.33;;;;117321;1189;26121;-57
2022/05/23 00:46:56;;;;;;;;;7.00;4.50;;;27.00;97137.31;;;;117325;1191;25431;-55
2022/05/23 00:49:38;;;;;;;;;7.75;6.75;;;26.98;97139.29;;;;117838;1188;25636;-57
2022/05/23 00:52:10;;;;;;;;;4.00;4.00;;;26.98;97141.34;;;;117856;1188;25511;-57
2022/05/23 00:54:48;;;;;;;;;7.75;7.75;;;26.98;97142.42;;;;117850;1187;25450;-59
2022/05/23 00:57:22;;;;;;;;;8.00;6.25;;;26.97;97141.63;;;;117847;1188;25134;-58
2022/05/23 00:59:55;;;;;;;;;7.75;6.00;;;26.98;97147.32;;;;117838;1186;24989;-58
2022/05/23 01:02:23;;;;;;;;;6.75;3.75;;;26.97;97151.55;;;;117819;1187;24899;-58
2022/05/23 01:04:54;;;;;;;;;5.75;4.50;;;26.95;97151.02;;;;117544;1187;24833;-58
2022/05/23 01:07:26;;;;;;;;;4.50;3.75;;;26.94;97155.40;;;;117452;1188;25199;-56
2022/05/23 01:09:54;;;;;;;;;4.00;3.00;;;26.93;97153.18;;;;117830;1187;25537;-56
2022/05/23 01:12:25;;;;;;;;;5.00;3.75;;;26.92;97148.82;;;;117873;1187;25421;-57
2022/05/23 01:14:57;;;;;;;;;7.25;5.25;;;26.91;97147.36;;;;117858;1187;25612;-56
2022/05/23 01:17:30;;;;;;;;;5.50;5.25;;;26.92;97148.20;;;;117474;1189;25137;-57
2022/05/23 01:19:57;;;;;;;;;6.75;4.50;;;26.92;97146.81;;;;117867;1186;24804;-56
2022/05/23 01:22:54;;;;;;;;;5.00;5.00;;;26.91;97146.20;;;;117850;1187;26103;-58
2022/05/23 01:25:32;;;;;;;;;6.25;5.00;;;26.95;97152.13;;;;117833;1187;25142;-57
2022/05/23 01:28:06;;;;;;;;;7.75;4.75;;;26.94;97155.11;;;;117860;1188;24862;-57
2022/05/23 01:30:36;;;;;;;;;6.00;5.25;;;26.95;97154.00;;;;117842;1187;25284;-57
2022/05/23 01:33:10;;;;;;;;;10.25;8.00;;;26.93;97151.76;;;;117818;1188;25392;-57
2022/05/23 01:35:40;;;;;;;;;5.25;5.25;;;26.92;97152.02;;;;117842;1186;25705;-57
2022/05/23 01:38:11;;;;;;;;;6.33;5.33;;;26.91;97158.02;;;;117474;1189;25353;-58
2022/05/23 01:40:43;;;;;;;;;11.00;8.50;;;26.91;97157.86;;;;117823;1186;26615;-58
2022/05/23 01:43:16;;;;;;;;;8.00;5.00;;;26.90;97157.20;;;;117706;1186;25345;-58
2022/05/23 01:45:44;;;;;;;;;9.33;5.67;;;26.89;97160.20;;;;117882;1187;25258;-58
2022/05/23 01:48:16;;;;;;;;;5.50;5.50;;;26.89;97160.98;;;;117834;1188;25069;-56
2022/05/23 01:50:47;;;;;;;;;8.00;6.00;;;26.88;97158.94;;;;117830;1188;25080;-58
2022/05/23 01:53:18;;;;;;;;;3.75;3.75;;;26.87;97157.02;;;;117459;1188;25565;-56
2022/05/23 01:55:45;;;;;;;;;7.67;7.67;;;26.88;97157.41;;;;117873;1188;25054;-57
2022/05/23 02:01:12;;;;;;;;;4.50;4.50;;;26.87;97160.77;;;;117837;1187;24718;-57
2022/05/23 02:01:16;;;;;;;;;5.75;5.50;;;26.92;97160.40;;;;117817;1188;24743;-61
2022/05/23 02:03:49;;;;;;;;;6.75;6.50;;;26.93;97155.68;;;;117456;1188;25278;-58
2022/05/23 02:06:17;;;;;;;;;6.50;4.25;;;26.91;97156.19;;;;117844;1186;25264;-58
2022/05/23 02:08:47;;;;;;;;;6.67;6.67;;;26.88;97155.61;;;;117841;1187;25459;-55
2022/05/23 02:11:15;;;;;;;;;7.00;5.50;;;26.88;97159.02;;;;117501;1189;24974;-58
2022/05/23 02:13:46;;;;;;;;;3.75;3.75;;;26.87;97159.65;;;;117865;1186;25331;-57
2022/05/23 02:16:21;;;;;;;;;7.00;5.25;;;26.85;97158.27;;;;117838;1187;25504;-57
2022/05/23 02:18:50;;;;;;;;;5.50;5.25;;;26.86;97156.48;;;;117913;1186;25060;-58
2022/05/23 02:21:21;;;;;;;;;4.00;4.00;;;26.89;97161.13;;;;117877;1186;24775;-58
2022/05/23 02:23:52;;;;;;;;;4.00;4.00;;;26.87;97160.05;;;;117884;1187;25704;-59
2022/05/23 02:26:20;;;;;;;;;5.00;5.00;;;26.84;97158.59;;;;117828;1187;24690;-57
2022/05/23 02:28:50;;;;;;;;;5.67;5.67;;;26.84;97159.20;;;;117839;1188;25433;-57
2022/05/23 02:31:22;;;;;;;;;4.75;4.75;;;26.83;97161.13;;;;117866;1188;26179;-57
2022/05/23 02:33:50;;;;;;;;;5.00;5.00;;;26.82;97165.84;;;;117874;1186;24988;-57
2022/05/23 02:36:19;;;;;;;;;5.25;5.25;;;26.82;97169.08;;;;117863;1188;24804;-59
2022/05/23 02:38:51;;;;;;;;;7.00;7.00;;;26.82;97165.68;;;;117866;1188;25250;-58
2022/05/23 02:41:22;;;;;;;;;4.50;4.50;;;26.83;97166.28;;;;117839;1186;25558;-57
2022/05/23 02:43:51;;;;;;;;;2.75;2.75;;;26.82;97164.87;;;;117844;1186;25291;-58
2022/05/23 02:46:24;;;;;;;;;6.50;6.50;;;26.82;97166.57;;;;117442;1188;25753;-57
2022/05/23 02:48:53;;;;;;;;;7.50;6.00;;;26.82;97161.95;;;;117852;1187;24996;-57
2022/05/23 02:51:25;;;;;;;;;8.00;6.67;;;26.81;97161.00;;;;117853;1188;25425;-57
2022/05/23 02:53:56;;;;;;;;;4.00;4.00;;;26.81;97162.88;;;;117878;1186;25082;-56
2022/05/23 02:56:27;;;;;;;;;3.00;2.00;;;26.80;97165.91;;;;117831;1187;25147;-58
2022/05/23 02:58:55;;;;;;;;;8.50;5.50;;;26.80;97170.40;;;;117848;1188;25165;-58
2022/05/23 03:01:26;;;;;;;;;3.50;3.50;;;26.80;97168.95;;;;117838;1187;25574;-56
2022/05/23 03:03:57;;;;;;;;;7.25;6.00;;;26.80;97169.26;;;;117856;1186;25354;-58
2022/05/23 03:06:28;;;;;;;;;6.00;5.67;;;26.81;97171.27;;;;117840;1187;25035;-57
2022/05/23 03:08:58;;;;;;;;;6.25;4.50;;;26.80;97171.14;;;;117821;1188;25154;-59
2022/05/23 03:11:28;;;;;;;;;5.25;5.25;;;26.80;97169.70;;;;117864;1188;25086;-57
2022/05/23 03:13:57;;;;;;;;;5.50;4.75;;;26.78;97169.63;;;;117865;1186;25239;-57
2022/05/23 03:16:26;;;;;;;;;3.25;3.25;;;26.79;97169.65;;;;117864;1187;25213;-58
2022/05/23 03:18:58;;;;;;;;;4.75;4.00;;;26.79;97162.26;;;;117846;1188;25393;-59
2022/05/23 03:27:05;;;;;;;;;9.00;6.67;;;26.79;97158.39;;;;117868;1186;25105;-57
2022/05/23 03:29:35;;;;;;;;;7.75;5.50;;;26.78;97153.26;;;;117842;1187;26220;-57
2022/05/23 03:32:09;;;;;;;;;4.00;4.00;;;26.77;97157.18;;;;117820;1187;24895;-56
2022/05/23 03:34:39;;;;;;;;;8.25;4.75;;;26.78;97158.61;;;;117811;1186;25397;-57
2022/05/23 03:37:17;;;;;;;;;4.50;3.50;;;26.79;97155.30;;;;117851;1187;25342;-57
2022/05/23 03:39:48;;;;;;;;;4.00;4.00;;;26.79;97155.78;;;;117886;1186;25185;-56
2022/05/23 03:42:16;;;;;;;;;6.25;5.00;;;26.79;97163.52;;;;117854;1186;25202;-57
2022/05/23 03:44:45;;;;;;;;;3.67;3.33;;;26.78;97166.91;;;;117849;1188;25638;-60
2022/05/23 03:47:15;;;;;;;;;7.00;5.67;;;26.78;97169.58;;;;117872;1188;25848;-59
2022/05/23 03:49:47;;;;;;;;;6.33;6.33;;;26.78;97171.12;;;;117889;1188;25768;-57
2022/05/23 03:52:20;;;;;;;;;6.00;6.00;;;26.78;97173.46;;;;117862;1186;25182;-57
2022/05/23 03:54:49;;;;;;;;;7.75;7.75;;;26.79;97173.04;;;;117895;1186;24992;-58
2022/05/23 03:57:22;;;;;;;;;6.25;4.50;;;26.79;97175.31;;;;117840;1187;25225;-56
2022/05/23 03:59:52;;;;;;;;;4.75;4.25;;;26.78;97171.54;;;;117873;1188;24847;-58
2022/05/23 04:02:21;;;;;;;;;5.33;5.33;;;26.79;97171.89;;;;117811;1187;26006;-57
2022/05/23 04:04:53;;;;;;;;;10.00;5.25;;;26.79;97171.65;;;;117831;1188;25408;-58
2022/05/23 04:07:21;;;;;;;;;7.50;4.25;;;26.78;97171.45;;;;117442;1188;25693;-58
2022/05/23 04:09:53;;;;;;;;;6.00;5.25;;;26.79;97169.55;;;;117855;1186;26212;-59
2022/05/23 04:12:21;;;;;;;;;5.50;4.00;;;26.78;97168.38;;;;117885;1187;25182;-57
2022/05/23 04:14:51;;;;;;;;;5.00;4.00;;;26.77;97172.43;;;;117467;1188;25440;-58
2022/05/23 04:17:22;;;;;;;;;6.75;4.25;;;26.77;97173.41;;;;117833;1187;25479;-59
2022/05/23 04:19:52;;;;;;;;;5.00;4.25;;;26.76;97177.62;;;;117496;1188;25675;-58
2022/05/23 04:22:20;;;;;;;;;4.25;4.25;;;26.77;97178.43;;;;117862;1186;25096;-58
2022/05/23 04:24:51;;;;;;;;;6.50;5.00;;;26.77;97177.08;;;;117842;1188;25023;-58
2022/05/23 04:27:25;;;;;;;;;6.25;5.00;;;26.76;97174.85;;;;117872;1186;24982;-57
2022/05/23 04:29:54;;;;;;;;;5.25;5.25;;;26.77;97172.29;;;;117861;1186;25491;-58
2022/05/23 04:35:14;;;;;;;;;5.33;5.33;;;26.79;97173.04;;;;117880;1188;25243;-58
2022/05/23 04:37:45;;;;;;;;;4.25;4.25;;;26.78;97172.76;;;;117835;1187;25660;-57
2022/05/23 04:40:20;;;;;;;;;5.75;4.25;;;26.78;97167.81;;;;117846;1188;25464;-58
2022/05/23 04:42:48;;;;;;;;;7.50;6.75;;;26.80;97170.14;;;;117841;1188;24767;-59
2022/05/23 04:45:18;;;;;;;;;5.67;5.67;;;26.81;97172.19;;;;117849;1186;25155;-58
2022/05/23 04:50:37;;;;;;;;;5.75;3.75;;;26.81;97166.47;;;;117854;1187;25388;-59
2022/05/23 04:53:09;;;;;;;;;7.25;5.50;;;26.79;97166.41;;;;117467;1188;24846;-59
2022/05/23 04:55:41;;;;;;;;;2.00;2.00;;;26.79;97161.64;;;;117867;1188;25144;-58
2022/05/23 04:58:14;;;;;;;;;7.75;5.00;;;26.80;97156.94;;;;117864;1188;26833;-57
2022/05/23 05:00:43;;;;;;;;;7.75;6.50;;;26.81;97157.45;;;;117863;1188;25440;-58
2022/05/23 05:03:16;;;;;;;;;5.50;5.50;;;26.82;97163.29;;;;117927;1187;25137;-57
2022/05/23 05:05:46;;;;;;;;;8.00;7.00;;;26.85;97164.11;;;;117863;1189;24775;-57
2022/05/23 05:08:14;;;;;;;;;3.75;3.75;;;26.95;97165.26;;;;117947;1186;25681;-58
2022/05/23 05:10:42;;;;;;;;;6.67;5.33;;;26.94;97160.66;;;;117457;1187;24744;-56
2022/05/23 05:13:11;;;;;;;;;5.00;5.00;;;26.89;97162.84;;;;118019;1187;24819;-56
2022/05/23 05:15:41;;;;;;;;;5.25;3.75;;;26.92;97165.95;;;;117902;1187;25232;-58
2022/05/23 05:18:10;;;;;;;;;4.50;4.50;;;26.90;97166.95;;;;117815;1186;25707;-58
2022/05/23 05:20:41;;;;;;;;;8.33;5.33;;;26.88;97167.98;;;;117852;1187;25051;-58
2022/05/23 05:23:11;;;;;;;;;4.00;4.00;;;26.86;97164.27;;;;117835;1186;25051;-58
2022/05/23 05:25:41;;;;;;;;;6.25;5.00;;;26.84;97158.54;;;;117826;1188;25423;-57
2022/05/23 05:28:10;;;;;;;;;4.00;3.33;;;26.84;97160.77;;;;117912;1187;26637;-57
2022/05/23 05:30:50;;;;;;;;;3.75;3.00;;;26.84;97160.45;;;;117845;1188;25683;-57
2022/05/23 05:33:23;;;;;;;;;5.00;4.00;;;26.86;97169.67;;;;117852;1187;25485;-58
2022/05/23 05:36:04;;;;;;;;;4.00;4.00;;;26.88;97169.41;;;;117871;1186;24874;-58
2022/05/23 05:38:37;;;;;;;;;6.25;6.25;;;26.88;97169.09;;;;117455;1187;25330;-58
2022/05/23 05:41:09;;;;;;;;;7.25;6.25;;;26.88;97169.98;;;;117843;1187;25263;-57
2022/05/23 05:43:50;;;;;;;;;3.00;3.00;;;26.88;97170.09;;;;117830;1188;25546;-58
2022/05/23 05:46:30;;;;;;;;;4.50;4.50;;;26.89;97174.36;;;;117911;1188;25757;-59
2022/05/23 05:49:06;;;;;;;;;6.50;6.25;;;26.92;97170.57;;;;117456;1188;25486;-56
2022/05/23 05:51:38;;;;;;;;;6.50;5.25;;;26.92;97171.01;;;;117877;1188;25372;-57
2022/05/23 05:54:10;;;;;;;;;3.00;3.00;;;26.92;97174.03;;;;117480;1187;25301;-58
2022/05/23 05:56:39;;;;;;;;;4.00;4.00;;;26.91;97172.29;;;;117443;1189;25198;-58
2022/05/23 05:59:09;;;;;;;;;6.50;4.00;;;26.90;97178.36;;;;117480;1186;25617;-57
2022/05/23 06:01:40;;;;;;;;;8.25;4.00;;;26.89;97179.55;;;;117898;1186;25115;-56
2022/05/23 06:04:09;;;;;;;;;4.00;3.50;;;26.90;97178.89;;;;117877;1188;24964;-58
2022/05/23 06:12:11;;;;;;;;;5.25;5.25;;;26.86;97179.48;;;;117514;1188;25565;-58
2022/05/23 06:14:46;;;;;;;;;6.00;5.00;;;26.85;97175.08;;;;117920;1188;24730;-58
2022/05/23 06:17:14;;;;;;;;;4.50;4.50;;;26.90;97175.89;;;;117799;1187;25341;-59
2022/05/23 06:19:47;;;;;;;;;7.00;4.50;;;26.91;97173.02;;;;117801;1187;25006;-58
2022/05/23 06:22:17;;;;;;;;;4.00;4.00;;;26.92;97168.70;;;;117875;1188;26630;-60
2022/05/23 06:24:46;;;;;;;;;5.67;4.33;;;26.95;97176.60;;;;117831;1187;24920;-59
2022/05/23 06:27:16;;;;;;;;;3.75;3.00;;;26.94;97172.73;;;;117903;1186;24822;-60
2022/05/23 06:29:46;;;;;;;;;4.00;4.00;;;26.92;97172.17;;;;117845;1187;25487;-57
2022/05/23 06:32:22;;;;;;;;;4.00;4.00;;;26.92;97175.09;;;;117886;1187;25462;-59
2022/05/23 06:34:52;;;;;;;;;4.75;3.50;;;26.93;97167.06;;;;117897;1188;25556;-58
2022/05/23 06:37:22;;;;;;;;;6.00;5.00;;;26.92;97165.36;;;;117866;1187;25227;-57
2022/05/23 06:39:51;;;;;;;;;5.25;4.00;;;26.91;97159.73;;;;117479;1188;25194;-57
2022/05/23 06:42:20;;;;;;;;;4.00;4.00;;;26.91;97166.70;;;;117883;1187;25369;-56
2022/05/23 06:44:48;;;;;;;;;4.00;3.00;;;26.89;97161.87;;;;117825;1187;24833;-58
2022/05/23 06:47:17;;;;;;;;;5.00;5.00;;;26.88;97166.48;;;;117880;1186;25470;-57
2022/05/23 06:49:49;;;;;;;;;2.00;2.00;;;26.89;97170.15;;;;117876;1187;25273;-58
2022/05/23 06:52:20;;;;;;;;;5.25;4.00;;;26.89;97172.69;;;;117846;1188;25819;-57
2022/05/23 06:54:48;;;;;;;;;4.00;4.00;;;26.89;97167.05;;;;117871;1188;25435;-56
2022/05/23 06:57:18;;;;;;;;;5.00;5.00;;;26.89;97166.19;;;;117874;1187;24898;-56
2022/05/23 06:59:49;;;;;;;;;4.00;4.00;;;26.90;97162.52;;;;117864;1187;24918;-56
2022/05/23 07:02:18;;;;;;;;;5.50;5.25;;;26.90;97160.71;;;;117850;1187;25395;-56
2022/05/23 07:13:13;;;;;;;;;4.33;4.00;;;26.91;97167.44;;;;117858;1187;24965;-57
2022/05/23 07:15:46;;;;;;;;;4.75;4.00;;;26.89;97172.52;;;;117911;1186;25079;-59
2022/05/23 07:18:20;;;;;;;;;7.00;3.00;;;26.90;97173.52;;;;117868;1187;26374;-58
2022/05/23 07:20:49;;;;;;;;;3.75;3.50;;;26.92;97176.02;;;;117874;1188;25306;-57
2022/05/23 07:23:19;;;;;;;;;5.33;5.33;;;26.91;97172.83;;;;117874;1188;25295;-57
2022/05/23 07:25:48;;;;;;;;;4.67;4.00;;;26.91;97175.63;;;;117857;1186;25535;-57
2022/05/23 07:28:16;;;;;;;;;4.00;2.33;;;26.91;97172.58;;;;117881;1186;24937;-58
2022/05/23 07:30:45;;;;;;;;;5.50;4.25;;;26.91;97175.61;;;;117864;1186;25008;-58
2022/05/23 07:33:16;;;;;;;;;4.00;4.00;;;26.91;97170.49;;;;117846;1186;26018;-57
2022/05/23 07:35:55;;;;;;;;;5.67;5.33;;;26.91;97170.91;;;;117874;1187;25021;-58
2022/05/23 07:38:23;;;;;;;;;4.00;4.00;;;26.92;97170.49;;;;117887;1187;25396;-57
2022/05/23 07:40:54;;;;;;;;;5.50;4.00;;;26.91;97173.64;;;;117850;1188;25391;-58
2022/05/23 07:43:23;;;;;;;;;5.33;4.67;;;26.91;97170.92;;;;117872;1187;25051;-58
2022/05/23 07:45:55;;;;;;;;;5.50;5.50;;;26.92;97173.92;;;;117827;1186;25748;-58
2022/05/23 07:48:27;;;;;;;;;6.25;6.25;;;26.92;97177.01;;;;117898;1188;25684;-57
2022/05/23 07:50:57;;;;;;;;;1.50;1.50;;;26.93;97182.19;;;;117864;1186;25662;-57
2022/05/23 08:01:53;;;;;;;;;4.00;4.00;;;26.92;97184.50;;;;117889;1188;25692;-57
2022/05/23 08:04:22;;;;;;;;;4.00;4.00;;;26.91;97188.23;;;;117872;1188;25066;-57
2022/05/23 08:06:51;;;;;;;;;4.00;4.00;;;26.90;97188.84;;;;117457;1188;25669;-58
2022/05/23 08:09:19;;;;;;;;;4.67;4.00;;;26.90;97185.37;;;;117861;1187;24894;-57
2022/05/23 08:11:52;;;;;;;;;4.75;3.50;;;26.90;97186.23;;;;117882;1187;25484;-57
2022/05/23 08:14:21;;;;;;;;;5.00;5.00;;;26.91;97188.02;;;;117874;1187;24993;-58
2022/05/23 08:16:50;;;;;;;;;4.50;4.50;;;26.93;97189.10;;;;117907;1186;25703;-58
2022/05/23 08:19:20;;;;;;;;;3.00;3.00;;;26.93;97186.85;;;;117518;1188;25693;-58
2022/05/23 08:21:57;;;;;;;;;4.00;4.00;;;26.94;97189.23;;;;117862;1187;25189;-58
2022/05/23 08:24:25;;;;;;;;;3.67;2.33;;;26.94;97188.48;;;;117847;1186;24909;-59
2022/05/23 08:26:54;;;;;;;;;4.00;4.00;;;26.94;97181.54;;;;117913;1187;25746;-57
2022/05/23 08:29:25;;;;;;;;;3.50;3.50;;;26.94;97189.46;;;;117860;1189;25505;-57
2022/05/23 08:31:53;;;;;;;;;4.00;4.00;;;26.93;97185.59;;;;117869;1186;25716;-58
2022/05/23 08:34:22;;;;;;;;;4.25;3.75;;;26.92;97191.61;;;;117446;1188;24998;-56
2022/05/23 08:36:52;;;;;;;;;2.00;2.00;;;26.90;97189.31;;;;117887;1188;26470;-58
2022/05/23 08:39:21;;;;;;;;;4.50;3.00;;;26.90;97184.13;;;;117857;1188;24714;-57
2022/05/23 08:41:50;;;;;;;;;8.67;5.00;;;26.91;97181.41;;;;117887;1188;25536;-57
2022/05/23 08:44:22;;;;;;;;;3.00;3.00;;;26.89;97179.90;;;;117888;1187;25447;-58
2022/05/23 08:47:05;;;;;;;;;3.75;3.00;;;26.90;97185.55;;;;117868;1188;25034;-57
2022/05/23 08:49:44;;;;;;;;;5.00;3.25;;;26.93;97188.71;;;;117866;1187;25502;-58
2022/05/23 08:52:33;;;;;;;;;2.67;2.00;;;26.93;97184.93;;;;117893;1187;25095;-56
2022/05/23 08:55:20;;;;;;;;;5.00;5.00;;;26.99;97185.73;;;;117864;1188;25429;-58
2022/05/23 08:57:55;;;;;;;;;4.67;4.67;;;27.00;97188.13;;;;117886;1187;25355;-55
2022/05/23 09:00:32;;;;;;;;;4.00;4.00;;;26.97;97183.84;;;;117846;1187;25267;-57
2022/05/23 09:03:12;;;;;;;;;4.00;4.00;;;26.96;97180.95;;;;117882;1188;25355;-58
2022/05/23 09:05:52;;;;;;;;;4.25;4.00;;;26.98;97184.48;;;;117899;1187;25084;-56
2022/05/23 09:09:06;;;;;;;;;3.50;3.50;;;27.07;97181.66;;;;117893;1188;25619;-58
2022/05/23 09:11:37;;;;;;;;;3.75;3.75;;;27.14;97174.57;;;;117851;1188;25380;-57
2022/05/23 09:14:09;;;;;;;;;3.75;3.75;;;27.11;97181.73;;;;117854;1188;24949;-58
2022/05/23 09:16:46;;;;;;;;;5.25;5.25;;;27.05;97179.83;;;;117891;1188;24981;-56
2022/05/23 09:19:35;;;;;;;;;3.75;3.75;;;27.04;97179.13;;;;117828;1187;25820;-57
2022/05/23 09:22:17;;;;;;;;;4.00;4.00;;;27.04;97179.74;;;;117860;1186;25632;-57
2022/05/23 09:24:58;;;;;;;;;4.50;4.50;;;27.02;97178.70;;;;117858;1187;25131;-59
2022/05/23 09:27:33;;;;;;;;;5.50;3.25;;;27.02;97183.35;;;;117837;1187;24756;-57
2022/05/23 09:30:14;;;;;;;;;4.25;3.25;;;27.00;97172.70;;;;117864;1186;25656;-58
2022/05/23 09:32:50;;;;;;;;;4.50;3.00;;;27.02;97168.67;;;;117888;1187;24750;-57
2022/05/23 09:35:21;;;;;;;;;4.25;4.00;;;27.03;97166.82;;;;117827;1187;25556;-57
2022/05/23 09:38:14;;;;;;;;;1.50;1.50;;;27.01;97161.73;;;;117851;1188;26376;-58
2022/05/23 09:40:45;;;;;;;;;2.67;2.00;;;27.00;97162.53;;;;117849;1187;25935;-56
2022/05/23 09:49:15;;;;;;;;;2.75;2.75;;;27.00;97150.45;;;;117854;1186;24761;-57
2022/05/23 09:51:59;;;;;;;;;4.00;4.00;;;26.98;97151.71;;;;117877;1188;25325;-57
2022/05/23 09:54:36;;;;;;;;;4.25;3.50;;;26.99;97148.01;;;;117865;1188;25638;-57
2022/05/23 09:57:24;;;;;;;;;3.50;3.00;;;26.98;97142.02;;;;117866;1186;25042;-56
2022/05/23 10:00:03;;;;;;;;;4.33;3.00;;;27.00;97141.60;;;;117808;1187;25561;-57
2022/05/23 10:02:41;;;;;;;;;0.50;0.50;;;27.00;97136.88;;;;117848;1188;24931;-57
2022/05/23 10:05:39;;;;;;;;;6.00;2.75;;;26.99;97136.02;;;;117879;1187;25167;-58
2022/05/23 10:08:39;;;;;;;;;3.25;3.25;;;27.08;97130.11;;;;117825;1187;25504;-57
2022/05/23 10:11:20;;;;;;;;;3.50;2.50;;;27.14;97130.98;;;;117368;1189;25138;-59
2022/05/23 10:13:54;;;;;;;;;3.25;3.25;;;27.11;97131.31;;;;117851;1188;25507;-57
2022/05/23 10:16:23;;;;;;;;;3.00;3.00;;;27.07;97134.75;;;;117462;1187;25308;-57
2022/05/23 10:19:02;;;;;;;;;4.00;4.00;;;27.04;97133.49;;;;117841;1187;25246;-59
2022/05/23 10:21:38;;;;;;;;;5.00;3.00;;;27.02;97135.48;;;;117898;1188;24846;-57
2022/05/23 10:24:10;;;;;;;;;3.67;3.00;;;27.02;97128.77;;;;117886;1186;25850;-56
2022/05/23 10:26:48;;;;;;;;;3.00;3.00;;;27.02;97125.89;;;;117846;1187;24818;-56
2022/05/23 10:29:47;;;;;;;;;3.00;3.00;;;27.01;97130.58;;;;117511;1188;24759;-57
2022/05/23 10:32:27;;;;;;;;;2.67;2.67;;;27.08;97133.70;;;;117856;1188;25430;-57
2022/05/23 10:35:27;;;;;;;;;3.33;3.33;;;27.10;97127.66;;;;117869;1188;25098;-57
2022/05/23 10:42:07;;;;;;;;;4.00;4.00;;;27.18;97120.13;;;;117649;1188;25174;-57
2022/05/23 10:43:56;;;;;;;;;4.67;4.67;;;27.21;97123.98;;;;117852;1186;25012;-58
2022/05/23 10:46:27;;;;;;;;;2.75;2.75;;;27.15;97118.25;;;;117861;1188;25353;-58
2022/05/23 10:49:01;;;;;;;;;4.50;3.25;;;27.12;97119.74;;;;117870;1187;25454;-57
2022/05/23 10:52:08;;;;;;;;;4.25;4.25;;;27.10;97114.98;;;;117871;1188;26434;-58
2022/05/23 10:55:19;;;;;;;;;5.25;4.00;;;27.17;97118.64;;;;117883;1188;25032;-57
2022/05/23 10:58:09;;;;;;;;;4.00;4.00;;;27.18;97122.48;;;;117456;1188;25224;-58
2022/05/23 11:00:53;;;;;;;;;5.00;4.00;;;27.13;97118.38;;;;117874;1187;26207;-55
2022/05/23 11:03:55;;;;;;;;;3.00;3.00;;;27.14;97114.40;;;;117827;1187;25623;-57
2022/05/23 11:06:37;;;;;;;;;4.67;3.67;;;27.16;97115.59;;;;117389;1189;25044;-59
2022/05/23 11:09:15;;;;;;;;;6.75;4.00;;;27.13;97121.65;;;;117825;1187;25168;-59
2022/05/23 11:12:01;;;;;;;;;2.75;2.75;;;27.12;97112.70;;;;117809;1188;25627;-58
2022/05/23 11:15:01;;;;;;;;;4.33;4.33;;;27.12;97113.96;;;;117847;1187;24962;-58
2022/05/23 11:17:58;;;;;;;;;5.00;5.00;;;27.16;97112.06;;;;117332;1190;25211;-57
2022/05/23 11:20:32;;;;;;;;;5.25;4.00;;;27.18;97119.50;;;;117686;1186;25226;-58
2022/05/23 11:23:21;;;;;;;;;4.25;3.50;;;27.15;97116.29;;;;117852;1187;24836;-57
2022/05/23 11:25:55;;;;;;;;;4.00;4.00;;;27.16;97119.44;;;;117913;1187;25329;-57
2022/05/23 11:34:25;;;;;;;;;3.00;3.00;;;27.18;97117.80;;;;117862;1186;24936;-57
2022/05/23 11:37:06;;;;;;;;;5.67;3.67;;;27.14;97105.62;;;;117853;1187;25992;-57
2022/05/23 11:39:51;;;;;;;;;4.25;4.25;;;27.16;97114.11;;;;117869;1188;26330;-57
2022/05/23 11:42:55;;;;;;;;;3.00;3.00;;;27.17;97106.56;;;;117712;1187;25384;-58
2022/05/23 11:48:43;;;;;;;;;4.67;4.00;;;27.17;97110.65;;;;117840;1188;25649;-58
2022/05/23 11:51:24;;;;;;;;;3.50;3.50;;;27.16;97106.60;;;;117866;1188;25413;-56
2022/05/23 11:53:58;;;;;;;;;4.00;4.00;;;27.14;97105.53;;;;117847;1186;25066;-56
2022/05/23 11:56:45;;;;;;;;;3.75;3.75;;;27.13;97101.83;;;;117836;1186;25707;-57
2022/05/23 11:59:25;;;;;;;;;4.25;4.00;;;27.15;97106.12;;;;117633;1188;25363;-57
2022/05/23 12:02:11;;;;;;;;;3.75;3.00;;;27.14;97104.48;;;;117838;1188;25989;-56
2022/05/23 12:04:51;;;;;;;;;3.75;3.75;;;27.16;97099.91;;;;117847;1186;25394;-58
2022/05/23 12:07:42;;;;;;;;;4.00;4.00;;;27.17;97105.89;;;;117850;1187;25396;-59
2022/05/23 12:10:24;;;;;;;;;4.25;4.25;;;27.23;97103.35;;;;117426;1188;25167;-57
2022/05/23 12:13:20;;;;;;;;;4.00;3.50;;;27.26;97099.85;;;;117831;1188;25065;-57
2022/05/23 12:15:58;;;;;;;;;4.25;3.75;;;27.34;97103.84;;;;117851;1187;25141;-59
2022/05/23 12:18:30;;;;;;;;;3.67;3.67;;;27.33;97098.79;;;;117789;1189;25296;-57
2022/05/23 12:21:05;;;;;;;;;5.75;4.25;;;27.31;97093.44;;;;117870;1188;25531;-58
2022/05/23 12:23:35;;;;;;;;;3.00;3.00;;;27.30;97096.87;;;;117875;1188;25340;-58
2022/05/23 12:26:09;;;;;;;;;4.00;4.00;;;27.28;97092.19;;;;117861;1186;24794;-56
2022/05/23 12:29:40;;;;;;;;;5.33;5.33;;;27.27;97094.33;;;;117846;1187;25520;-57
2022/05/23 12:32:24;;;;;;;;;3.00;3.00;;;27.44;97092.44;;;;117293;1191;25434;-59
2022/05/23 12:34:57;;;;;;;;;3.00;3.00;;;27.41;97096.04;;;;117800;1188;25229;-57
2022/05/23 12:37:30;;;;;;;;;6.25;5.25;;;27.37;97093.20;;;;117863;1187;25052;-57
2022/05/23 12:40:01;;;;;;;;;5.00;5.00;;;27.34;97092.12;;;;117434;1188;26020;-57
2022/05/23 12:43:04;;;;;;;;;3.50;2.75;;;27.32;97091.57;;;;117877;1187;25642;-58
2022/05/23 12:45:44;;;;;;;;;3.00;3.00;;;27.33;97087.79;;;;117884;1187;25213;-57
2022/05/23 12:48:19;;;;;;;;;3.00;3.00;;;27.33;97087.20;;;;117823;1186;24888;-57
2022/05/23 12:55:05;;;;;;;;;4.50;4.50;;;27.34;97085.29;;;;117871;1186;25153;-57
2022/05/23 12:58:06;;;;;;;;;5.50;4.75;;;27.38;97081.83;;;;117604;1186;25394;-56
2022/05/23 13:00:50;;;;;;;;;2.67;2.67;;;27.41;97083.11;;;;117844;1188;25097;-56
2022/05/23 13:03:49;;;;;;;;;4.25;4.00;;;27.39;97081.20;;;;117653;1188;26229;-57
2022/05/23 13:06:30;;;;;;;;;5.00;5.00;;;27.40;97082.17;;;;117684;1187;24951;-59
2022/05/23 13:09:05;;;;;;;;;6.00;4.00;;;27.37;97077.98;;;;117880;1188;24694;-56
2022/05/23 13:11:40;;;;;;;;;2.50;2.50;;;27.38;97076.08;;;;117737;1188;25390;-58
2022/05/23 13:14:10;;;;;;;;;6.25;4.25;;;27.37;97074.88;;;;117645;1186;25395;-58
2022/05/23 13:16:54;;;;;;;;;1.25;1.25;;;27.36;97078.36;;;;117825;1187;25674;-58
2022/05/23 13:22:26;;;;;;;;;5.00;3.00;;;27.41;97075.00;;;;117533;1188;24940;-57
2022/05/23 13:25:00;;;;;;;;;4.00;4.00;;;27.40;97077.05;;;;117826;1188;25211;-59
2022/05/23 13:27:46;;;;;;;;;4.00;4.00;;;27.42;97068.92;;;;117470;1188;25135;-56
2022/05/23 13:30:21;;;;;;;;;5.00;5.00;;;27.45;97069.89;;;;117858;1186;25746;-58
2022/05/23 13:33:09;;;;;;;;;4.00;3.00;;;27.44;97071.42;;;;117831;1186;25392;-57
2022/05/23 13:35:42;;;;;;;;;6.33;4.00;;;27.44;97075.80;;;;117863;1187;25282;-57
2022/05/23 13:38:17;;;;;;;;;4.75;4.00;;;27.42;97075.82;;;;117462;1188;24833;-58
2022/05/23 13:40:48;;;;;;;;;2.00;2.00;;;27.42;97078.80;;;;117491;1186;25647;-57
2022/05/23 13:43:31;;;;;;;;;4.50;4.50;;;27.42;97076.51;;;;117833;1186;26328;-58
2022/05/23 13:46:09;;;;;;;;;3.00;3.00;;;27.43;97071.79;;;;117838;1188;25664;-58
2022/05/23 13:49:03;;;;;;;;;6.25;4.50;;;27.44;97078.60;;;;117888;1187;25047;-62
2022/05/23 13:52:06;;;;;;;;;8.25;4.00;;;27.52;97080.64;;;;117363;1190;25030;-64